• Join FlightAware (Why Join?)
  • Login
  • US Flag 
01:04AM EST


 

Airport Tracker/Info


-or-


 

Live Flight TrackerFlight Track Log ✈ KAP5 ✈ 30-Jun-2013 ✈ KBOS - KMVY

Flight Track Log - Related Links

Times and Time Zones

All times are in EDT time to prevent confusion due to time zone crossing. See the KAP5 flight status page for this flight to view local times or setup timezone preferences in your user account.

Time Position Orientation Groundspeed Altitude Reporting Facility
EDT Latitude Longitude Course Direction KTS MPH feet Rate Location/Type
08:10AM 42.3500 -70.9833 160° South 115 132 800  Level KA90
08:11AM 42.3167 -70.9667 160° South 116 133 1,500 660 Climbing KA90
08:12AM 42.2833 -70.9500 160° South 125 144 2,200 600 Climbing KA90
08:13AM 42.2500 -70.9333 160° South 118 136 2,800 600 Climbing KA90
08:14AM 42.2167 -70.9167 160° South 120 138 3,500 600 Climbing KA90
08:15AM 42.1833 -70.9000 160° South 122 140 4,000 480 Climbing KA90
08:16AM 42.1500 -70.8833 160° South 130 150 4,500 480 Climbing KA90
08:17AM 42.1167 -70.8667 160° South 129 148 5,000 540 Climbing KA90
08:19AM 42.0693 -70.8524 167° South  Level FlightAware Approximate
08:26AM 41.8215 -70.7733 161° South  Level FlightAware Approximate
08:27AM 41.7870 -70.7577 161° South  Level FlightAware Approximate
08:28AM 41.7525 -70.7420 161° South  Level FlightAware Approximate
08:29AM 41.7178 -70.7275 164° South  Level FlightAware Approximate
08:30AM 41.6828 -70.7144 164° South  Level FlightAware Approximate
08:31AM 41.6478 -70.7012 164° South  Level FlightAware Approximate
08:32AM 41.6127 -70.6881 164° South  Level FlightAware Approximate
08:33AM 41.5777 -70.6749 164° South  Level FlightAware Approximate
08:34AM 41.5427 -70.6618 164° South  Level FlightAware Approximate
08:35AM 41.5076 -70.6487 164° South  Level FlightAware Approximate
08:36AM 41.4726 -70.6356 164° South  Level FlightAware Approximate
08:37AM 41.4377 -70.6217 163° South  Level FlightAware Approximate
08:38AM 41.4029 -70.6078 163° South  Level FlightAware Approximate
08:39AM 41.3934 -70.6139 163° South  Level Estimated
08:40AM 41.3934 -70.6139 163° South  Level Estimated
08:41AM 41.3934 -70.6139 163° South  Level Estimated
08:42AM 41.3934 -70.6139 163° South  Level Estimated
08:43AM 41.3934 -70.6139 163° South  Level Estimated
08:44AM 41.3934 -70.6139 163° South  Level Estimated